sensor_id;sensor_type;location;lat;lon;timestamp;temperature;humidity
48515;DHT22;34309;47.260;2.796;2024-01-30T00:00:59;18.80;24.50
48515;DHT22;34309;47.260;2.796;2024-01-30T00:03:33;18.80;24.50
48515;DHT22;34309;47.260;2.796;2024-01-30T00:06:07;18.80;24.50
48515;DHT22;34309;47.260;2.796;2024-01-30T00:08:42;18.80;24.50
48515;DHT22;34309;47.260;2.796;2024-01-30T00:11:19;18.80;24.50
48515;DHT22;34309;47.260;2.796;2024-01-30T00:13:53;18.90;24.60
48515;DHT22;34309;47.260;2.796;2024-01-30T00:16:28;18.90;24.60
48515;DHT22;34309;47.260;2.796;2024-01-30T00:19:02;18.80;24.50
48515;DHT22;34309;47.260;2.796;2024-01-30T00:21:36;18.80;24.50
48515;DHT22;34309;47.260;2.796;2024-01-30T00:24:10;18.80;24.50
48515;DHT22;34309;47.260;2.796;2024-01-30T00:26:44;18.80;25.00
48515;DHT22;34309;47.260;2.796;2024-01-30T00:29:12;18.80;24.50
48515;DHT22;34309;47.260;2.796;2024-01-30T00:31:52;18.80;25.00
48515;DHT22;34309;47.260;2.796;2024-01-30T00:34:26;18.90;24.50
48515;DHT22;34309;47.260;2.796;2024-01-30T00:37:00;18.90;24.50
48515;DHT22;34309;47.260;2.796;2024-01-30T00:39:34;18.90;24.50
48515;DHT22;34309;47.260;2.796;2024-01-30T00:42:08;18.90;24.50
48515;DHT22;34309;47.260;2.796;2024-01-30T00:44:42;18.80;24.50
48515;DHT22;34309;47.260;2.796;2024-01-30T00:47:17;18.90;24.50
48515;DHT22;34309;47.260;2.796;2024-01-30T00:49:51;18.80;24.40
48515;DHT22;34309;47.260;2.796;2024-01-30T00:52:26;18.90;24.60
48515;DHT22;34309;47.260;2.796;2024-01-30T00:55:00;18.90;24.60
48515;DHT22;34309;47.260;2.796;2024-01-30T00:57:33;18.80;24.40
48515;DHT22;34309;47.260;2.796;2024-01-30T01:00:10;18.80;24.40
48515;DHT22;34309;47.260;2.796;2024-01-30T01:02:46;18.80;24.40
48515;DHT22;34309;47.260;2.796;2024-01-30T01:05:19;18.80;24.30
48515;DHT22;34309;47.260;2.796;2024-01-30T01:07:53;18.80;24.50
48515;DHT22;34309;47.260;2.796;2024-01-30T01:10:27;18.80;24.40
48515;DHT22;34309;47.260;2.796;2024-01-30T01:13:01;18.80;24.40
48515;DHT22;34309;47.260;2.796;2024-01-30T01:15:35;18.80;24.50
48515;DHT22;34309;47.260;2.796;2024-01-30T01:18:10;18.80;24.30
48515;DHT22;34309;47.260;2.796;2024-01-30T01:20:44;18.80;24.50
48515;DHT22;34309;47.260;2.796;2024-01-30T01:23:13;18.80;24.50
48515;DHT22;34309;47.260;2.796;2024-01-30T01:25:47;18.80;24.30
48515;DHT22;34309;47.260;2.796;2024-01-30T01:28:21;18.80;24.40
48515;DHT22;34309;47.260;2.796;2024-01-30T01:30:56;18.80;24.40
48515;DHT22;34309;47.260;2.796;2024-01-30T01:33:38;18.80;24.40
48515;DHT22;34309;47.260;2.796;2024-01-30T01:36:13;18.80;24.30
48515;DHT22;34309;47.260;2.796;2024-01-30T01:38:47;18.80;24.30
48515;DHT22;34309;47.260;2.796;2024-01-30T01:41:20;18.80;24.30
48515;DHT22;34309;47.260;2.796;2024-01-30T01:43:54;18.80;24.50
48515;DHT22;34309;47.260;2.796;2024-01-30T01:46:33;18.80;24.30
48515;DHT22;34309;47.260;2.796;2024-01-30T01:49:08;18.80;24.30
48515;DHT22;34309;47.260;2.796;2024-01-30T01:51:43;18.80;24.30
48515;DHT22;34309;47.260;2.796;2024-01-30T01:54:19;18.80;24.30
48515;DHT22;34309;47.260;2.796;2024-01-30T01:56:53;18.80;24.40
48515;DHT22;34309;47.260;2.796;2024-01-30T01:59:28;18.80;24.50
48515;DHT22;34309;47.260;2.796;2024-01-30T02:02:02;18.80;24.30
48515;DHT22;34309;47.260;2.796;2024-01-30T02:04:38;18.80;24.30
48515;DHT22;34309;47.260;2.796;2024-01-30T02:07:12;18.80;24.40
48515;DHT22;34309;47.260;2.796;2024-01-30T02:09:46;18.80;24.30
48515;DHT22;34309;47.260;2.796;2024-01-30T02:12:20;18.80;24.30
48515;DHT22;34309;47.260;2.796;2024-01-30T02:14:54;18.80;24.40
48515;DHT22;34309;47.260;2.796;2024-01-30T02:17:28;18.80;24.20
48515;DHT22;34309;47.260;2.796;2024-01-30T02:20:04;18.80;24.50
48515;DHT22;34309;47.260;2.796;2024-01-30T02:22:41;18.80;24.30
48515;DHT22;34309;47.260;2.796;2024-01-30T02:25:16;18.70;24.20
48515;DHT22;34309;47.260;2.796;2024-01-30T02:27:51;18.80;24.30
48515;DHT22;34309;47.260;2.796;2024-01-30T02:30:25;18.70;24.30
48515;DHT22;34309;47.260;2.796;2024-01-30T02:32:59;18.80;24.30
48515;DHT22;34309;47.260;2.796;2024-01-30T02:35:33;18.80;24.50
48515;DHT22;34309;47.260;2.796;2024-01-30T02:38:09;18.80;24.30
48515;DHT22;34309;47.260;2.796;2024-01-30T02:40:43;18.80;24.30
48515;DHT22;34309;47.260;2.796;2024-01-30T02:43:17;18.70;24.30
48515;DHT22;34309;47.260;2.796;2024-01-30T02:45:51;18.80;24.40
48515;DHT22;34309;47.260;2.796;2024-01-30T02:48:43;18.70;24.30
48515;DHT22;34309;47.260;2.796;2024-01-30T02:51:17;18.80;24.30
48515;DHT22;34309;47.260;2.796;2024-01-30T02:53:52;18.80;24.30
48515;DHT22;34309;47.260;2.796;2024-01-30T02:56:26;18.80;24.50
48515;DHT22;34309;47.260;2.796;2024-01-30T02:58:59;18.70;24.40
48515;DHT22;34309;47.260;2.796;2024-01-30T03:01:33;18.70;24.30
48515;DHT22;34309;47.260;2.796;2024-01-30T03:04:07;18.80;24.30
48515;DHT22;34309;47.260;2.796;2024-01-30T03:06:45;18.70;24.30
48515;DHT22;34309;47.260;2.796;2024-01-30T03:09:21;18.80;24.30
48515;DHT22;34309;47.260;2.796;2024-01-30T03:11:55;18.80;24.20
48515;DHT22;34309;47.260;2.796;2024-01-30T03:14:30;18.80;24.30
48515;DHT22;34309;47.260;2.796;2024-01-30T03:17:04;18.80;24.20
48515;DHT22;34309;47.260;2.796;2024-01-30T03:19:38;18.70;24.30
48515;DHT22;34309;47.260;2.796;2024-01-30T03:22:11;18.80;24.30
48515;DHT22;34309;47.260;2.796;2024-01-30T03:24:47;18.70;24.20
48515;DHT22;34309;47.260;2.796;2024-01-30T03:27:22;18.80;24.30
48515;DHT22;34309;47.260;2.796;2024-01-30T03:29:57;18.80;24.40
48515;DHT22;34309;47.260;2.796;2024-01-30T03:32:31;18.80;24.20
48515;DHT22;34309;47.260;2.796;2024-01-30T03:35:05;18.80;24.20
48515;DHT22;34309;47.260;2.796;2024-01-30T03:37:39;18.70;24.10
48515;DHT22;34309;47.260;2.796;2024-01-30T03:40:14;18.80;24.10
48515;DHT22;34309;47.260;2.796;2024-01-30T03:42:49;18.80;24.10
48515;DHT22;34309;47.260;2.796;2024-01-30T03:45:22;18.80;24.20
48515;DHT22;34309;47.260;2.796;2024-01-30T03:47:56;18.80;24.00
48515;DHT22;34309;47.260;2.796;2024-01-30T03:50:30;18.80;24.20
48515;DHT22;34309;47.260;2.796;2024-01-30T03:53:04;18.80;24.20
48515;DHT22;34309;47.260;2.796;2024-01-30T03:55:39;18.80;24.10
48515;DHT22;34309;47.260;2.796;2024-01-30T03:58:13;18.80;24.20
48515;DHT22;34309;47.260;2.796;2024-01-30T04:00:46;18.80;24.20
48515;DHT22;34309;47.260;2.796;2024-01-30T04:03:20;18.80;24.20
48515;DHT22;34309;47.260;2.796;2024-01-30T04:05:54;18.80;24.10
48515;DHT22;34309;47.260;2.796;2024-01-30T04:08:29;18.80;24.00
48515;DHT22;34309;47.260;2.796;2024-01-30T04:11:06;18.70;24.00
48515;DHT22;34309;47.260;2.796;2024-01-30T04:13:40;18.80;24.10
48515;DHT22;34309;47.260;2.796;2024-01-30T04:16:20;18.80;24.20
48515;DHT22;34309;47.260;2.796;2024-01-30T04:18:54;18.80;24.10
48515;DHT22;34309;47.260;2.796;2024-01-30T04:21:27;18.80;24.10
48515;DHT22;34309;47.260;2.796;2024-01-30T04:24:01;18.80;24.00
48515;DHT22;34309;47.260;2.796;2024-01-30T04:26:36;18.80;24.10
48515;DHT22;34309;47.260;2.796;2024-01-30T04:29:11;18.80;24.20
48515;DHT22;34309;47.260;2.796;2024-01-30T04:31:45;18.80;24.10
48515;DHT22;34309;47.260;2.796;2024-01-30T04:34:18;18.70;24.10
48515;DHT22;34309;47.260;2.796;2024-01-30T04:36:52;18.80;24.20
48515;DHT22;34309;47.260;2.796;2024-01-30T04:39:25;18.70;24.10
48515;DHT22;34309;47.260;2.796;2024-01-30T04:42:00;18.70;24.00
48515;DHT22;34309;47.260;2.796;2024-01-30T04:44:33;18.80;24.10
48515;DHT22;34309;47.260;2.796;2024-01-30T04:47:07;18.70;24.20
48515;DHT22;34309;47.260;2.796;2024-01-30T04:49:43;18.70;24.00
48515;DHT22;34309;47.260;2.796;2024-01-30T04:52:17;18.70;24.10
48515;DHT22;34309;47.260;2.796;2024-01-30T04:54:45;18.70;24.10
48515;DHT22;34309;47.260;2.796;2024-01-30T04:57:20;18.70;24.00
48515;DHT22;34309;47.260;2.796;2024-01-30T04:59:54;18.70;24.10
48515;DHT22;34309;47.260;2.796;2024-01-30T05:02:28;18.70;24.10
48515;DHT22;34309;47.260;2.796;2024-01-30T05:05:01;18.70;24.20
48515;DHT22;34309;47.260;2.796;2024-01-30T05:07:35;18.70;24.10
48515;DHT22;34309;47.260;2.796;2024-01-30T05:10:10;18.70;24.00
48515;DHT22;34309;47.260;2.796;2024-01-30T05:12:45;18.70;24.00
48515;DHT22;34309;47.260;2.796;2024-01-30T05:15:19;18.70;24.20
48515;DHT22;34309;47.260;2.796;2024-01-30T05:17:48;18.70;24.10
48515;DHT22;34309;47.260;2.796;2024-01-30T05:20:23;18.70;24.10
48515;DHT22;34309;47.260;2.796;2024-01-30T05:23:00;18.70;24.10
48515;DHT22;34309;47.260;2.796;2024-01-30T05:25:33;18.70;24.10
48515;DHT22;34309;47.260;2.796;2024-01-30T05:28:09;18.70;24.00
48515;DHT22;34309;47.260;2.796;2024-01-30T05:30:43;18.70;24.00
48515;DHT22;34309;47.260;2.796;2024-01-30T05:33:16;18.70;23.90
48515;DHT22;34309;47.260;2.796;2024-01-30T05:35:50;18.70;24.10
48515;DHT22;34309;47.260;2.796;2024-01-30T05:38:26;18.70;24.30
48515;DHT22;34309;47.260;2.796;2024-01-30T05:41:02;18.70;24.10
48515;DHT22;34309;47.260;2.796;2024-01-30T05:43:38;18.70;24.50
48515;DHT22;34309;47.260;2.796;2024-01-30T05:46:12;18.70;24.30
48515;DHT22;34309;47.260;2.796;2024-01-30T05:48:46;18.60;24.40
48515;DHT22;34309;47.260;2.796;2024-01-30T05:51:20;18.70;24.40
48515;DHT22;34309;47.260;2.796;2024-01-30T05:53:54;18.60;24.20
48515;DHT22;34309;47.260;2.796;2024-01-30T05:56:28;18.60;24.00
48515;DHT22;34309;47.260;2.796;2024-01-30T05:59:03;18.60;24.20
48515;DHT22;34309;47.260;2.796;2024-01-30T06:01:37;18.60;24.10
48515;DHT22;34309;47.260;2.796;2024-01-30T06:04:11;18.60;24.20
48515;DHT22;34309;47.260;2.796;2024-01-30T06:06:39;18.60;24.10
48515;DHT22;34309;47.260;2.796;2024-01-30T06:09:13;18.60;24.30
48515;DHT22;34309;47.260;2.796;2024-01-30T06:11:47;18.60;24.40
48515;DHT22;34309;47.260;2.796;2024-01-30T06:14:22;18.60;24.10
48515;DHT22;34309;47.260;2.796;2024-01-30T06:16:56;18.60;24.10
48515;DHT22;34309;47.260;2.796;2024-01-30T06:19:30;18.60;24.20
48515;DHT22;34309;47.260;2.796;2024-01-30T06:22:04;18.60;24.40
48515;DHT22;34309;47.260;2.796;2024-01-30T06:24:38;18.60;24.30
48515;DHT22;34309;47.260;2.796;2024-01-30T06:27:12;18.60;24.40
48515;DHT22;34309;47.260;2.796;2024-01-30T06:29:47;18.60;24.30
48515;DHT22;34309;47.260;2.796;2024-01-30T06:32:16;18.60;24.20
48515;DHT22;34309;47.260;2.796;2024-01-30T06:34:51;18.60;24.40
48515;DHT22;34309;47.260;2.796;2024-01-30T06:37:25;18.60;24.30
48515;DHT22;34309;47.260;2.796;2024-01-30T06:39:58;18.60;24.30
48515;DHT22;34309;47.260;2.796;2024-01-30T06:42:32;18.50;24.00
48515;DHT22;34309;47.260;2.796;2024-01-30T06:45:08;18.60;24.10
48515;DHT22;34309;47.260;2.796;2024-01-30T06:47:42;18.60;24.30
48515;DHT22;34309;47.260;2.796;2024-01-30T06:50:16;18.60;24.10
48515;DHT22;34309;47.260;2.796;2024-01-30T06:52:49;18.50;24.30
48515;DHT22;34309;47.260;2.796;2024-01-30T06:55:23;18.60;24.30
48515;DHT22;34309;47.260;2.796;2024-01-30T06:57:57;18.60;24.30
48515;DHT22;34309;47.260;2.796;2024-01-30T07:00:28;18.60;24.40
48515;DHT22;34309;47.260;2.796;2024-01-30T07:03:01;18.50;24.20
48515;DHT22;34309;47.260;2.796;2024-01-30T07:05:35;18.50;24.20
48515;DHT22;34309;47.260;2.796;2024-01-30T07:08:08;18.50;24.00
48515;DHT22;34309;47.260;2.796;2024-01-30T07:10:42;18.50;24.30
48515;DHT22;34309;47.260;2.796;2024-01-30T07:13:15;18.60;24.20
48515;DHT22;34309;47.260;2.796;2024-01-30T07:15:51;18.50;24.10
48515;DHT22;34309;47.260;2.796;2024-01-30T07:18:24;18.50;24.10
48515;DHT22;34309;47.260;2.796;2024-01-30T07:20:58;18.50;24.00
48515;DHT22;34309;47.260;2.796;2024-01-30T07:23:32;18.50;24.30
48515;DHT22;34309;47.260;2.796;2024-01-30T07:26:06;18.50;24.00
48515;DHT22;34309;47.260;2.796;2024-01-30T07:28:40;18.50;24.00
48515;DHT22;34309;47.260;2.796;2024-01-30T07:31:15;18.50;24.20
48515;DHT22;34309;47.260;2.796;2024-01-30T07:33:49;18.50;24.30
48515;DHT22;34309;47.260;2.796;2024-01-30T07:36:23;18.50;24.20
48515;DHT22;34309;47.260;2.796;2024-01-30T07:38:57;18.50;24.30
48515;DHT22;34309;47.260;2.796;2024-01-30T07:41:30;18.50;24.10
48515;DHT22;34309;47.260;2.796;2024-01-30T07:44:04;18.50;24.30
48515;DHT22;34309;47.260;2.796;2024-01-30T07:46:40;18.50;24.30
48515;DHT22;34309;47.260;2.796;2024-01-30T07:49:14;18.40;24.20
48515;DHT22;34309;47.260;2.796;2024-01-30T07:51:48;18.50;24.10
48515;DHT22;34309;47.260;2.796;2024-01-30T07:54:22;18.40;24.10
48515;DHT22;34309;47.260;2.796;2024-01-30T07:56:56;18.40;24.20
48515;DHT22;34309;47.260;2.796;2024-01-30T07:59:30;18.40;24.00
48515;DHT22;34309;47.260;2.796;2024-01-30T08:02:06;18.40;24.20
48515;DHT22;34309;47.260;2.796;2024-01-30T08:04:41;18.40;24.20
48515;DHT22;34309;47.260;2.796;2024-01-30T08:07:14;18.40;24.20
48515;DHT22;34309;47.260;2.796;2024-01-30T08:09:49;18.40;24.20
48515;DHT22;34309;47.260;2.796;2024-01-30T08:12:24;18.40;24.20
48515;DHT22;34309;47.260;2.796;2024-01-30T08:14:53;18.40;24.20
48515;DHT22;34309;47.260;2.796;2024-01-30T08:17:27;18.40;24.20
48515;DHT22;34309;47.260;2.796;2024-01-30T08:20:01;18.40;24.20
48515;DHT22;34309;47.260;2.796;2024-01-30T08:22:38;18.40;24.10
48515;DHT22;34309;47.260;2.796;2024-01-30T08:25:12;18.40;24.30
48515;DHT22;34309;47.260;2.796;2024-01-30T08:27:46;18.40;24.80
48515;DHT22;34309;47.260;2.796;2024-01-30T08:30:23;18.40;24.20
48515;DHT22;34309;47.260;2.796;2024-01-30T08:32:58;18.40;24.30
48515;DHT22;34309;47.260;2.796;2024-01-30T08:35:31;18.40;24.20
48515;DHT22;34309;47.260;2.796;2024-01-30T08:38:06;18.40;24.20
48515;DHT22;34309;47.260;2.796;2024-01-30T08:40:40;18.40;24.20
48515;DHT22;34309;47.260;2.796;2024-01-30T08:43:13;18.40;24.20
48515;DHT22;34309;47.260;2.796;2024-01-30T08:45:47;18.40;24.20
48515;DHT22;34309;47.260;2.796;2024-01-30T08:48:23;18.40;24.20
48515;DHT22;34309;47.260;2.796;2024-01-30T08:50:57;18.40;24.20
48515;DHT22;34309;47.260;2.796;2024-01-30T08:53:32;18.40;24.20
48515;DHT22;34309;47.260;2.796;2024-01-30T08:56:07;18.40;24.20
48515;DHT22;34309;47.260;2.796;2024-01-30T08:58:40;18.40;24.20
48515;DHT22;34309;47.260;2.796;2024-01-30T09:01:14;18.40;24.20
48515;DHT22;34309;47.260;2.796;2024-01-30T09:03:50;18.40;24.20
48515;DHT22;34309;47.260;2.796;2024-01-30T09:06:24;18.40;24.20
48515;DHT22;34309;47.260;2.796;2024-01-30T09:08:58;18.40;24.30
48515;DHT22;34309;47.260;2.796;2024-01-30T09:11:34;18.30;24.20
48515;DHT22;34309;47.260;2.796;2024-01-30T09:14:08;18.30;24.20
48515;DHT22;34309;47.260;2.796;2024-01-30T09:16:42;18.40;24.20
48515;DHT22;34309;47.260;2.796;2024-01-30T09:19:17;18.30;24.20
48515;DHT22;34309;47.260;2.796;2024-01-30T09:21:51;18.30;24.20
48515;DHT22;34309;47.260;2.796;2024-01-30T09:24:26;18.30;24.20
48515;DHT22;34309;47.260;2.796;2024-01-30T09:26:59;18.30;24.20
48515;DHT22;34309;47.260;2.796;2024-01-30T09:29:29;18.30;24.20
48515;DHT22;34309;47.260;2.796;2024-01-30T09:32:04;18.30;24.20
48515;DHT22;34309;47.260;2.796;2024-01-30T09:34:39;18.30;24.20
48515;DHT22;34309;47.260;2.796;2024-01-30T09:37:13;18.30;24.20
48515;DHT22;34309;47.260;2.796;2024-01-30T09:39:50;18.30;24.20
48515;DHT22;34309;47.260;2.796;2024-01-30T09:42:28;18.30;24.20
48515;DHT22;34309;47.260;2.796;2024-01-30T09:45:05;18.30;24.20
48515;DHT22;34309;47.260;2.796;2024-01-30T09:47:41;18.30;24.20
48515;DHT22;34309;47.260;2.796;2024-01-30T09:50:17;18.30;24.20
48515;DHT22;34309;47.260;2.796;2024-01-30T09:52:51;18.30;24.20
48515;DHT22;34309;47.260;2.796;2024-01-30T09:55:27;18.30;24.20
48515;DHT22;34309;47.260;2.796;2024-01-30T09:58:01;18.40;24.20
48515;DHT22;34309;47.260;2.796;2024-01-30T10:00:35;18.30;24.20
48515;DHT22;34309;47.260;2.796;2024-01-30T10:03:09;18.30;24.20
48515;DHT22;34309;47.260;2.796;2024-01-30T10:05:51;18.40;24.20
48515;DHT22;34309;47.260;2.796;2024-01-30T10:08:26;18.30;24.20
48515;DHT22;34309;47.260;2.796;2024-01-30T10:11:02;18.40;24.20
48515;DHT22;34309;47.260;2.796;2024-01-30T10:13:36;18.30;24.20
48515;DHT22;34309;47.260;2.796;2024-01-30T10:16:13;18.40;24.20
48515;DHT22;34309;47.260;2.796;2024-01-30T10:18:47;18.40;24.80
48515;DHT22;34309;47.260;2.796;2024-01-30T10:21:22;18.40;24.20
48515;DHT22;34309;47.260;2.796;2024-01-30T10:23:57;18.40;24.20
48515;DHT22;34309;47.260;2.796;2024-01-30T10:26:31;18.30;24.20
48515;DHT22;34309;47.260;2.796;2024-01-30T10:29:06;18.40;24.30
48515;DHT22;34309;47.260;2.796;2024-01-30T10:31:40;18.40;24.20
48515;DHT22;34309;47.260;2.796;2024-01-30T10:34:14;18.40;24.20
48515;DHT22;34309;47.260;2.796;2024-01-30T10:36:50;18.40;24.20
48515;DHT22;34309;47.260;2.796;2024-01-30T10:39:30;18.40;24.20
48515;DHT22;34309;47.260;2.796;2024-01-30T10:42:05;18.40;24.40
48515;DHT22;34309;47.260;2.796;2024-01-30T10:44:44;18.40;24.50
48515;DHT22;34309;47.260;2.796;2024-01-30T10:47:26;18.40;24.50
48515;DHT22;34309;47.260;2.796;2024-01-30T10:50:01;18.40;24.30
48515;DHT22;34309;47.260;2.796;2024-01-30T10:52:32;18.40;24.30
48515;DHT22;34309;47.260;2.796;2024-01-30T10:55:07;18.40;24.40
48515;DHT22;34309;47.260;2.796;2024-01-30T10:57:44;18.40;24.30
48515;DHT22;34309;47.260;2.796;2024-01-30T11:00:19;18.40;24.40
48515;DHT22;34309;47.260;2.796;2024-01-30T11:02:56;18.40;24.50
48515;DHT22;34309;47.260;2.796;2024-01-30T11:05:29;18.40;24.60
48515;DHT22;34309;47.260;2.796;2024-01-30T11:08:12;18.50;24.60
48515;DHT22;34309;47.260;2.796;2024-01-30T11:10:47;18.50;24.80
48515;DHT22;34309;47.260;2.796;2024-01-30T11:13:18;18.50;24.80
48515;DHT22;34309;47.260;2.796;2024-01-30T11:15:53;18.50;24.80
48515;DHT22;34309;47.260;2.796;2024-01-30T11:18:30;18.50;24.60
48515;DHT22;34309;47.260;2.796;2024-01-30T11:21:05;18.50;24.80
48515;DHT22;34309;47.260;2.796;2024-01-30T11:23:42;18.50;24.70
48515;DHT22;34309;47.260;2.796;2024-01-30T11:26:16;18.50;24.70
48515;DHT22;34309;47.260;2.796;2024-01-30T11:28:52;18.50;24.90
48515;DHT22;34309;47.260;2.796;2024-01-30T11:31:26;18.50;24.80
48515;DHT22;34309;47.260;2.796;2024-01-30T11:34:00;18.50;24.90
48515;DHT22;34309;47.260;2.796;2024-01-30T11:36:35;18.50;25.10
48515;DHT22;34309;47.260;2.796;2024-01-30T11:39:11;18.50;25.10
48515;DHT22;34309;47.260;2.796;2024-01-30T11:41:46;18.50;25.20
48515;DHT22;34309;47.260;2.796;2024-01-30T11:44:21;18.50;25.30
48515;DHT22;34309;47.260;2.796;2024-01-30T11:46:56;18.60;25.40
48515;DHT22;34309;47.260;2.796;2024-01-30T11:49:30;18.50;25.40
48515;DHT22;34309;47.260;2.796;2024-01-30T11:52:05;18.60;25.50
48515;DHT22;34309;47.260;2.796;2024-01-30T11:54:41;18.60;25.50
48515;DHT22;34309;47.260;2.796;2024-01-30T11:57:15;18.50;25.50
48515;DHT22;34309;47.260;2.796;2024-01-30T11:59:49;18.60;25.70
48515;DHT22;34309;47.260;2.796;2024-01-30T12:02:23;18.60;25.40
48515;DHT22;34309;47.260;2.796;2024-01-30T12:04:57;18.60;25.60
48515;DHT22;34309;47.260;2.796;2024-01-30T12:07:31;18.60;25.50
48515;DHT22;34309;47.260;2.796;2024-01-30T12:10:09;18.60;25.70
48515;DHT22;34309;47.260;2.796;2024-01-30T12:12:45;18.60;25.60
48515;DHT22;34309;47.260;2.796;2024-01-30T12:15:22;18.60;25.80
48515;DHT22;34309;47.260;2.796;2024-01-30T12:18:04;18.60;25.70
48515;DHT22;34309;47.260;2.796;2024-01-30T12:20:38;18.60;26.00
48515;DHT22;34309;47.260;2.796;2024-01-30T12:23:12;18.60;25.80
48515;DHT22;34309;47.260;2.796;2024-01-30T12:25:47;18.60;25.50
48515;DHT22;34309;47.260;2.796;2024-01-30T12:28:21;18.60;25.50
48515;DHT22;34309;47.260;2.796;2024-01-30T12:30:56;18.70;25.50
48515;DHT22;34309;47.260;2.796;2024-01-30T12:33:31;18.70;25.60
48515;DHT22;34309;47.260;2.796;2024-01-30T12:36:05;18.70;25.80
48515;DHT22;34309;47.260;2.796;2024-01-30T12:38:39;18.70;25.80
48515;DHT22;34309;47.260;2.796;2024-01-30T12:41:14;18.70;25.70
48515;DHT22;34309;47.260;2.796;2024-01-30T12:43:48;18.70;25.90
48515;DHT22;34309;47.260;2.796;2024-01-30T12:46:27;18.70;25.90
48515;DHT22;34309;47.260;2.796;2024-01-30T12:49:01;18.70;25.90
48515;DHT22;34309;47.260;2.796;2024-01-30T12:51:35;18.70;25.90
48515;DHT22;34309;47.260;2.796;2024-01-30T12:54:09;18.70;25.70
48515;DHT22;34309;47.260;2.796;2024-01-30T12:56:44;18.70;25.90
48515;DHT22;34309;47.260;2.796;2024-01-30T12:59:19;18.70;25.90
48515;DHT22;34309;47.260;2.796;2024-01-30T13:01:53;18.70;25.90
48515;DHT22;34309;47.260;2.796;2024-01-30T13:04:27;18.70;26.00
48515;DHT22;34309;47.260;2.796;2024-01-30T13:07:01;18.70;25.90
48515;DHT22;34309;47.260;2.796;2024-01-30T13:09:35;18.70;25.90
48515;DHT22;34309;47.260;2.796;2024-01-30T13:12:05;18.70;25.90
48515;DHT22;34309;47.260;2.796;2024-01-30T13:14:40;18.70;25.70
48515;DHT22;34309;47.260;2.796;2024-01-30T13:17:15;18.80;25.80
48515;DHT22;34309;47.260;2.796;2024-01-30T13:19:49;18.70;25.60
48515;DHT22;34309;47.260;2.796;2024-01-30T13:22:18;18.70;25.60
48515;DHT22;34309;47.260;2.796;2024-01-30T13:24:53;18.80;25.70
48515;DHT22;34309;47.260;2.796;2024-01-30T13:27:28;18.80;25.80
48515;DHT22;34309;47.260;2.796;2024-01-30T13:30:02;18.80;26.00
48515;DHT22;34309;47.260;2.796;2024-01-30T13:32:36;18.80;25.70
48515;DHT22;34309;47.260;2.796;2024-01-30T13:35:09;18.80;25.80
48515;DHT22;34309;47.260;2.796;2024-01-30T13:37:43;18.80;25.80
48515;DHT22;34309;47.260;2.796;2024-01-30T13:40:19;18.80;25.70
48515;DHT22;34309;47.260;2.796;2024-01-30T13:42:56;18.80;25.80
48515;DHT22;34309;47.260;2.796;2024-01-30T13:45:32;18.80;25.80
48515;DHT22;34309;47.260;2.796;2024-01-30T13:48:07;18.80;26.00
48515;DHT22;34309;47.260;2.796;2024-01-30T13:50:41;18.80;26.00
48515;DHT22;34309;47.260;2.796;2024-01-30T13:53:14;18.80;25.80
48515;DHT22;34309;47.260;2.796;2024-01-30T13:55:48;18.90;25.80
48515;DHT22;34309;47.260;2.796;2024-01-30T13:58:23;18.90;26.00
48515;DHT22;34309;47.260;2.796;2024-01-30T14:00:58;18.80;25.70
48515;DHT22;34309;47.260;2.796;2024-01-30T14:03:33;18.90;25.80
48515;DHT22;34309;47.260;2.796;2024-01-30T14:06:01;18.80;25.70
48515;DHT22;34309;47.260;2.796;2024-01-30T14:08:35;18.90;25.90
48515;DHT22;34309;47.260;2.796;2024-01-30T14:11:04;18.90;25.70
48515;DHT22;34309;47.260;2.796;2024-01-30T14:13:40;18.90;25.80
48515;DHT22;34309;47.260;2.796;2024-01-30T14:16:14;18.90;25.80
48515;DHT22;34309;47.260;2.796;2024-01-30T14:18:48;18.90;25.80
48515;DHT22;34309;47.260;2.796;2024-01-30T14:21:22;18.90;25.90
48515;DHT22;34309;47.260;2.796;2024-01-30T14:23:57;18.90;25.70
48515;DHT22;34309;47.260;2.796;2024-01-30T14:26:31;18.90;25.90
48515;DHT22;34309;47.260;2.796;2024-01-30T14:29:07;18.90;25.80
48515;DHT22;34309;47.260;2.796;2024-01-30T14:31:40;19.00;26.00
48515;DHT22;34309;47.260;2.796;2024-01-30T14:34:14;19.00;25.90
48515;DHT22;34309;47.260;2.796;2024-01-30T14:36:50;18.90;25.80
48515;DHT22;34309;47.260;2.796;2024-01-30T14:39:24;19.00;25.90
48515;DHT22;34309;47.260;2.796;2024-01-30T14:41:58;19.00;26.00
48515;DHT22;34309;47.260;2.796;2024-01-30T14:44:34;19.00;26.00
48515;DHT22;34309;47.260;2.796;2024-01-30T14:47:09;19.00;26.00
48515;DHT22;34309;47.260;2.796;2024-01-30T14:49:42;19.00;26.00
48515;DHT22;34309;47.260;2.796;2024-01-30T14:52:15;19.00;26.00
48515;DHT22;34309;47.260;2.796;2024-01-30T14:54:49;19.00;26.00
48515;DHT22;34309;47.260;2.796;2024-01-30T14:57:24;19.00;26.00
48515;DHT22;34309;47.260;2.796;2024-01-30T14:59:59;19.00;26.00
48515;DHT22;34309;47.260;2.796;2024-01-30T15:02:34;19.10;26.10
48515;DHT22;34309;47.260;2.796;2024-01-30T15:05:08;19.00;26.10
48515;DHT22;34309;47.260;2.796;2024-01-30T15:07:43;19.10;26.20
48515;DHT22;34309;47.260;2.796;2024-01-30T15:10:17;19.10;26.10
48515;DHT22;34309;47.260;2.796;2024-01-30T15:12:50;19.10;26.00
48515;DHT22;34309;47.260;2.796;2024-01-30T15:15:25;19.10;26.00
48515;DHT22;34309;47.260;2.796;2024-01-30T15:18:00;19.10;26.00
48515;DHT22;34309;47.260;2.796;2024-01-30T15:20:34;19.10;26.00
48515;DHT22;34309;47.260;2.796;2024-01-30T15:23:08;19.10;26.60
48515;DHT22;34309;47.260;2.796;2024-01-30T15:25:42;19.10;26.00
48515;DHT22;34309;47.260;2.796;2024-01-30T15:28:16;19.10;26.10
48515;DHT22;34309;47.260;2.796;2024-01-30T15:30:51;19.10;25.90
48515;DHT22;34309;47.260;2.796;2024-01-30T15:33:25;19.10;26.00
48515;DHT22;34309;47.260;2.796;2024-01-30T15:35:59;19.10;26.00
48515;DHT22;34309;47.260;2.796;2024-01-30T15:38:33;19.10;26.00
48515;DHT22;34309;47.260;2.796;2024-01-30T15:41:07;19.10;26.00
48515;DHT22;34309;47.260;2.796;2024-01-30T15:43:42;19.20;26.10
48515;DHT22;34309;47.260;2.796;2024-01-30T15:46:17;19.20;26.10
48515;DHT22;34309;47.260;2.796;2024-01-30T15:48:51;19.20;26.00
48515;DHT22;34309;47.260;2.796;2024-01-30T15:51:25;19.20;26.20
48515;DHT22;34309;47.260;2.796;2024-01-30T15:53:59;19.20;26.60
48515;DHT22;34309;47.260;2.796;2024-01-30T15:56:33;19.20;26.10
48515;DHT22;34309;47.260;2.796;2024-01-30T15:59:07;19.20;26.10
48515;DHT22;34309;47.260;2.796;2024-01-30T16:01:43;19.20;26.00
48515;DHT22;34309;47.260;2.796;2024-01-30T16:04:20;19.20;26.00
48515;DHT22;34309;47.260;2.796;2024-01-30T16:06:56;19.20;26.10
48515;DHT22;34309;47.260;2.796;2024-01-30T16:09:29;19.20;26.00
48515;DHT22;34309;47.260;2.796;2024-01-30T16:12:05;19.20;26.00
48515;DHT22;34309;47.260;2.796;2024-01-30T16:14:39;19.30;26.00